Tropic Sun — J8AZ2 — position and weather

sailwx.info

Track history (hours):
 
Tides and Currents Weather Stations Pressure Air Temp Water Temp Dewpoint Dewpoint Depression Visibility Wind Speed Wind Dir Waves Ship Positions

Tropic Sun

Last reported at 2017-Dec-15 10:00 UTC. Time now 2017-Dec-15 13:57 UTC.
Position N 16°18' W 062°42'.

Type: Cargo ship. MMSI: 375902000.

Wind from 070 at 21 knots

Barometer 1017.0 mb
Air temperature 26.0 ° C
Visibility: greater than 10.8 NM
Dewpoint 18.2 ° C
Water temperature 28.0 ° C

Date/timePositionNaut miles runAvg speedWind from/ knotsBaromVisibWave heightAir tempDewpointWater temp
2017-Dec-15 10:00N 16°18' W 062°42'6819.8 070 / 211017.010.8 26.018.228.0
2017-Dec-15 06:34N 15°36' W 061°47'113.8
2017-Dec-15 06:28N 15°35' W 061°46'1122.1
2017-Dec-15 06:00N 15°42' W 061°54'18202.7 070 / 221015.0 5.4 27.019.328.0
2017-Dec-15 05:54N 15°30' W 061°40'613.6
2017-Dec-15 05:26N 15°27' W 061°34'18 0.8
2017-Dec-14 08:00N 15°18' W 061°18'1728.3 120 / 101014.010.8 27.015.728.0
2017-Dec-14 07:23N 15°30' W 061°31'611.9
2017-Dec-14 06:52N 15°35' W 061°35'611.4
2017-Dec-14 06:19N 15°40' W 061°39'511.2
2017-Dec-14 05:52N 15°44' W 061°41'711.4
2017-Dec-14 05:14N 15°50' W 061°46'311.2
2017-Dec-14 05:00N 15°52' W 061°47'15981.6
2017-Dec-14 05:00N 15°42' W 061°36'2923.2 080 / 141015.0 5.4 26.018.228.0
2017-Dec-14 03:46N 16°04' W 061°55'611.6
2017-Dec-14 03:17N 16°08' W 061°58'311.6
2017-Dec-14 03:00N 16°11' W 062°00'611.4
2017-Dec-14 02:30N 16°16' W 062°04'611.5
2017-Dec-14 02:00N 16°21' W 062°07'3829.9
2017-Dec-14 02:00N 16°18' W 062°06'816.8 080 / 111016.0 5.4 26.018.229.0
2017-Dec-14 01:30N 16°25' W 062°10'611.1
2017-Dec-14 01:00N 16°30' W 062°13'611.3
2017-Dec-14 00:30N 16°34' W 062°17'611.0
2017-Dec-14 00:00N 16°39' W 062°20'611.5
2017-Dec-13 23:30N 16°44' W 062°23'2211.8
2017-Dec-13 21:38N 17°02' W 062°36'4 0.4
2017-Dec-13 09:56N 17°06' W 062°38'2 5.5
2017-Dec-13 09:29N 17°08' W 062°40'10 1.0
2017-Dec-13 00:08N 17°17' W 062°43'510.4
2017-Dec-12 23:41N 17°12' W 062°42'313.8
2017-Dec-12 23:28N 17°10' W 062°41'1812.1
2017-Dec-12 21:57N 17°06' W 062°22'614.1
2017-Dec-12 21:30N 17°07' W 062°16'713.9
2017-Dec-12 21:01N 17°07' W 062°08'713.9
2017-Dec-12 20:31N 17°08' W 062°01'713.3
2017-Dec-12 20:01N 17°09' W 061°54'3 5.2
2017-Dec-12 19:28N 17°08' W 061°51'0 0.0
2017-Dec-12 18:58N 17°08' W 061°51'0 0.0
2017-Dec-12 18:28N 17°08' W 061°51'0 0.0
2017-Dec-12 17:58N 17°08' W 061°51'0 0.0
2017-Dec-12 17:28N 17°08' W 061°51'0 0.0
2017-Dec-12 16:58N 17°08' W 061°51'0 0.0
2017-Dec-12 16:28N 17°08' W 061°51'0 0.0
2017-Dec-12 15:58N 17°08' W 061°51'0 0.0
2017-Dec-12 15:28N 17°08' W 061°51'0 0.0
2017-Dec-12 14:58N 17°08' W 061°51'0 0.0
2017-Dec-12 14:28N 17°08' W 061°51'0 0.0
2017-Dec-12 13:58N 17°08' W 061°51'0 0.0
2017-Dec-12 13:28N 17°08' W 061°51'0 0.2
2017-Dec-12 13:00N 17°07' W 061°51'2 4.2
2017-Dec-12 12:30N 17°08' W 061°53'0 0.6
2017-Dec-12 11:58N 17°09' W 061°53'0 0.1
2017-Dec-12 11:28N 17°09' W 061°53'2 3.5
2017-Dec-12 11:00N 17°09' W 061°55'612.1
2017-Dec-12 10:30N 17°13' W 061°60'611.7
2017-Dec-12 10:00N 17°16' W 062°05'713.0
2017-Dec-12 09:30N 17°20' W 062°10'713.5
2017-Dec-12 09:00N 17°24' W 062°16'713.4
2017-Dec-12 08:30N 17°29' W 062°21'713.2
2017-Dec-12 08:00N 17°33' W 062°27'713.2
2017-Dec-12 07:30N 17°37' W 062°32'2913.2
2017-Dec-12 05:19N 17°54' W 062°57'413.2
2017-Dec-12 05:00N 17°57' W 062°60'191867.1
2017-Dec-12 05:00N 17°42' W 062°48'2333.5 080 / 201012.5 5.4 26.016.428.0
2017-Dec-12 04:18N 18°01' W 063°03'0 0.0
2017-Dec-12 03:01N 18°01' W 063°03'0 0.0
2017-Dec-12 00:24N 18°01' W 063°03'0 0.0
2017-Dec-12 00:00N 18°01' W 063°03'0 0.0
2017-Dec-11 23:31N 18°01' W 063°03'0 0.0
2017-Dec-11 23:00N 18°01' W 063°03'0 0.0
2017-Dec-11 21:33N 18°01' W 063°03'0 0.0
2017-Dec-11 21:06N 18°01' W 063°03'0 0.0
2017-Dec-11 20:48N 18°01' W 063°03'0 0.0
2017-Dec-11 19:25N 18°01' W 063°03'0 0.0
2017-Dec-11 18:36N 18°01' W 063°03'0 0.0
2017-Dec-11 18:24N 18°01' W 063°03'0 0.0
2017-Dec-11 17:54N 18°01' W 063°03'0 0.0
2017-Dec-11 17:24N 18°01' W 063°03'0 0.0
2017-Dec-11 14:59N 18°01' W 063°03'3 4.4
2017-Dec-11 14:17N 18°00' W 063°06'412.8
2017-Dec-11 13:59N 18°01' W 063°10'813.3
2017-Dec-11 13:22N 18°02' W 063°18'613.3
2017-Dec-11 12:54N 18°03' W 063°25'512.8
2017-Dec-11 12:30N 18°03' W 063°30'812.7
2017-Dec-11 11:54N 18°06' W 063°38'6312.3
2017-Dec-11 06:49N 18°15' W 064°43'412.6
2017-Dec-11 06:30N 18°16' W 064°47'612.8
2017-Dec-11 06:00N 18°17' W 064°54'4 8.4
2017-Dec-11 05:30N 18°20' W 064°57'0 0.3
2017-Dec-11 05:00N 18°20' W 064°57'0 0.0
2017-Dec-11 04:30N 18°20' W 064°57'0 0.0
2017-Dec-11 03:58N 18°20' W 064°57'0 0.0
2017-Dec-11 03:28N 18°20' W 064°57'0 0.0
2017-Dec-11 02:58N 18°20' W 064°57'0 0.0
2017-Dec-11 02:28N 18°20' W 064°57'0 0.0
2017-Dec-11 01:58N 18°20' W 064°57'0 0.0
2017-Dec-11 01:28N 18°20' W 064°57'0 0.0
2017-Dec-11 00:58N 18°20' W 064°57'0 0.0
2017-Dec-11 00:28N 18°20' W 064°57'0 0.0
2017-Dec-10 23:58N 18°20' W 064°57'0 0.0
2017-Dec-10 23:28N 18°20' W 064°57'0 0.0
2017-Dec-10 22:58N 18°20' W 064°57'1 1.6
2017-Dec-10 22:30N 18°20' W 064°56'2 3.6
2017-Dec-10 22:00N 18°18' W 064°56'0 0.3
2017-Dec-10 21:30N 18°18' W 064°56'1 0.7
2017-Dec-10 20:10N 18°19' W 064°57'0 0.0
2017-Dec-10 20:00N 18°19' W 064°57'0 0.0
2017-Dec-10 19:27N 18°19' W 064°57'0 0.0
2017-Dec-10 18:45N 18°19' W 064°57'0 0.0
2017-Dec-10 18:28N 18°19' W 064°57'0 0.0
2017-Dec-10 17:52N 18°19' W 064°57'0 0.1
2017-Dec-10 17:22N 18°19' W 064°56'0 0.0
2017-Dec-10 16:58N 18°19' W 064°56'0 0.0
2017-Dec-10 16:28N 18°19' W 064°56'1 1.4
2017-Dec-10 16:00N 18°19' W 064°56'1 2.3
2017-Dec-10 15:30N 18°20' W 064°57'0 0.0
2017-Dec-10 14:59N 18°20' W 064°57'0 0.0
2017-Dec-10 14:29N 18°20' W 064°57'0 0.0
2017-Dec-10 13:59N 18°20' W 064°57'0 0.0
2017-Dec-10 13:29N 18°20' W 064°57'0 0.0
2017-Dec-10 12:59N 18°20' W 064°57'0 0.0
2017-Dec-10 12:29N 18°20' W 064°57'0 0.0
2017-Dec-10 12:00N 18°20' W 064°57'2 3.8
2017-Dec-10 11:30N 18°19' W 064°56'3 5.5
2017-Dec-10 11:00N 18°17' W 064°58'4 7.0
2017-Dec-10 10:30N 18°18' W 065°02'4 8.1
2017-Dec-10 10:00N 18°19' W 065°06'5 9.8
2017-Dec-10 09:30N 18°22' W 065°10'611.8
2017-Dec-10 09:00N 18°25' W 065°15'31 7.6
2017-Dec-10 05:00N 18°42' W 065°42'4615.5 170 / 221015.0 2.2 26.018.227.0
2017-Dec-10 02:00N 19°06' W 066°24'29 7.2 090 / 141016.0 26.018.228.0
2017-Dec-09 22:00N 19°24' W 066°48'6713.4 100 / 201016.010.8 28.016.928.0
2017-Dec-09 17:00N 20°00' W 067°48'5016.5 090 / 211015.0 2.2 27.017.627.0
2017-Dec-09 14:00N 20°30' W 068°30'29 7.2 110 / 161017.0 5.4 27.015.727.0
2017-Dec-09 10:00N 20°48' W 068°54'6713.3 090 / 251016.010.8 26.018.228.0
2017-Dec-09 05:00N 21°24' W 069°54'4113.7 100 / 241015.0 5.4 26.016.428.0
2017-Dec-09 02:00N 21°48' W 070°30'3311.0 100 / 181015.5 5.4 26.016.429.0
2017-Dec-08 23:00N 22°06' W 071°00'7011.6 100 / 141017.0 27.015.728.0
2017-Dec-08 17:00N 22°48' W 072°00'5016.8 100 / 181015.0 5.4 26.016.428.0
2017-Dec-08 14:00N 23°12' W 072°48'9411.8 110 / 161016.0 5.4 26.012.228.0
2017-Dec-08 06:00N 24°06' W 074°12'4912.2 120 / 171015.0 2.2 25.017.028.0
2017-Dec-08 02:00N 24°36' W 074°54'3712.4 130 / 141015.0 5.4 26.019.929.0
2017-Dec-07 23:00N 24°54' W 075°30'6513.0 090 / 251015.0 25.013.128.0
2017-Dec-07 18:00N 25°30' W 076°30'5719.0 110 / 91015.0 5.4 25.017.028.0
2017-Dec-07 15:00N 25°48' W 077°30'3511.5 130 / 51017.2 5.4 25.024.329.0
2017-Dec-07 12:00N 26°00' W 078°06'6412.8 110 / 81017.010.8 25.015.128.0
2017-Dec-07 07:00N 26°24' W 079°12'3024.1 120 / 101020.0 5.4 24.017.727.0
2017-Dec-07 05:44N 26°37' W 079°42'311.9
2017-Dec-07 05:30N 26°39' W 079°45'611.8
2017-Dec-07 05:00N 26°42' W 079°51'611.8
2017-Dec-07 04:30N 26°44' W 079°57'510.2
2017-Dec-07 04:00N 26°46' W 080°02'1 2.3
2017-Dec-07 03:30N 26°46' W 080°03'0 0.0
2017-Dec-07 02:58N 26°46' W 080°03'0 0.0
2017-Dec-07 02:28N 26°46' W 080°03'0 0.0
2017-Dec-07 01:58N 26°46' W 080°03'0 0.0
2017-Dec-07 01:28N 26°46' W 080°03'0 0.0
2017-Dec-07 00:58N 26°46' W 080°03'0 0.0
2017-Dec-07 00:31N 26°46' W 080°03'0 0.0
2017-Dec-07 00:00N 26°46' W 080°03'0 0.0
2017-Dec-06 23:30N 26°46' W 080°03'0 0.0
2017-Dec-06 23:00N 26°46' W 080°03'0 0.0
2017-Dec-06 22:30N 26°46' W 080°03'0 0.0
2017-Dec-06 22:00N 26°46' W 080°03'0 0.0
2017-Dec-06 21:30N 26°46' W 080°03'0 0.0
2017-Dec-06 21:00N 26°46' W 080°03'56 5.6
2017-Dec-06 11:00N 26°24' W 079°06'7615.2 160 / 111020.5 25.015.126.0
2017-Dec-06 06:00N 25°54' W 077°48'5719.0 320 / 111020.0 5.4 25.017.029.0
2017-Dec-06 03:00N 25°36' W 076°48'4013.3 120 / 161021.0 5.4 25.017.028.0
2017-Dec-06 00:00N 25°24' W 076°06'7812.9 100 / 231021.510.8
2017-Dec-05 18:00N 24°42' W 074°54'5819.2 090 / 231021.0 26.018.229.0
2017-Dec-05 15:00N 24°12' W 074°00'   090 / 241021.0 5.4 26.523.629.0
Track history (hours):
 
Tides and Currents Weather Stations Pressure Air Temp Water Temp Dewpoint Dewpoint Depression Visibility Wind Speed Wind Dir Waves Ship Positions

Tropic Sun

Last reported at 2017-Dec-15 10:00 UTC. Time now 2017-Dec-15 13:57 UTC.
Position N 16°18' W 062°42'.

Type: Cargo ship. MMSI: 375902000.

Wind from 070 at 21 knots

Barometer 1017.0 mb
Air temperature 26.0 ° C
Visibility: greater than 10.8 NM
Dewpoint 18.2 ° C
Water temperature 28.0 ° C

Date/timePositionNaut miles runAvg speedWind from/ knotsBaromVisibWave heightAir tempDewpointWater temp
2017-Dec-15 10:00N 16°18' W 062°42'6819.8 070 / 211017.010.8 26.018.228.0
2017-Dec-15 06:34N 15°36' W 061°47'113.8
2017-Dec-15 06:28N 15°35' W 061°46'1122.1
2017-Dec-15 06:00N 15°42' W 061°54'18202.7 070 / 221015.0 5.4 27.019.328.0
2017-Dec-15 05:54N 15°30' W 061°40'613.6
2017-Dec-15 05:26N 15°27' W 061°34'18 0.8
2017-Dec-14 08:00N 15°18' W 061°18'1728.3 120 / 101014.010.8 27.015.728.0
2017-Dec-14 07:23N 15°30' W 061°31'611.9
2017-Dec-14 06:52N 15°35' W 061°35'611.4
2017-Dec-14 06:19N 15°40' W 061°39'511.2
2017-Dec-14 05:52N 15°44' W 061°41'711.4
2017-Dec-14 05:14N 15°50' W 061°46'311.2
2017-Dec-14 05:00N 15°52' W 061°47'15981.6
2017-Dec-14 05:00N 15°42' W 061°36'2923.2 080 / 141015.0 5.4 26.018.228.0
2017-Dec-14 03:46N 16°04' W 061°55'611.6
2017-Dec-14 03:17N 16°08' W 061°58'311.6
2017-Dec-14 03:00N 16°11' W 062°00'611.4
2017-Dec-14 02:30N 16°16' W 062°04'611.5
2017-Dec-14 02:00N 16°21' W 062°07'3829.9
2017-Dec-14 02:00N 16°18' W 062°06'816.8 080 / 111016.0 5.4 26.018.229.0
2017-Dec-14 01:30N 16°25' W 062°10'611.1
2017-Dec-14 01:00N 16°30' W 062°13'611.3
2017-Dec-14 00:30N 16°34' W 062°17'611.0
2017-Dec-14 00:00N 16°39' W 062°20'611.5
2017-Dec-13 23:30N 16°44' W 062°23'2211.8
2017-Dec-13 21:38N 17°02' W 062°36'4 0.4
2017-Dec-13 09:56N 17°06' W 062°38'2 5.5
2017-Dec-13 09:29N 17°08' W 062°40'10 1.0
2017-Dec-13 00:08N 17°17' W 062°43'510.4
2017-Dec-12 23:41N 17°12' W 062°42'313.8
2017-Dec-12 23:28N 17°10' W 062°41'1812.1
2017-Dec-12 21:57N 17°06' W 062°22'614.1
2017-Dec-12 21:30N 17°07' W 062°16'713.9
2017-Dec-12 21:01N 17°07' W 062°08'713.9
2017-Dec-12 20:31N 17°08' W 062°01'713.3
2017-Dec-12 20:01N 17°09' W 061°54'3 5.2
2017-Dec-12 19:28N 17°08' W 061°51'0 0.0
2017-Dec-12 18:58N 17°08' W 061°51'0 0.0
2017-Dec-12 18:28N 17°08' W 061°51'0 0.0
2017-Dec-12 17:58N 17°08' W 061°51'0 0.0
2017-Dec-12 17:28N 17°08' W 061°51'0 0.0
2017-Dec-12 16:58N 17°08' W 061°51'0 0.0
2017-Dec-12 16:28N 17°08' W 061°51'0 0.0
2017-Dec-12 15:58N 17°08' W 061°51'0 0.0
2017-Dec-12 15:28N 17°08' W 061°51'0 0.0
2017-Dec-12 14:58N 17°08' W 061°51'0 0.0
2017-Dec-12 14:28N 17°08' W 061°51'0 0.0
2017-Dec-12 13:58N 17°08' W 061°51'0 0.0
2017-Dec-12 13:28N 17°08' W 061°51'0 0.2
2017-Dec-12 13:00N 17°07' W 061°51'2 4.2
2017-Dec-12 12:30N 17°08' W 061°53'0 0.6
2017-Dec-12 11:58N 17°09' W 061°53'0 0.1
2017-Dec-12 11:28N 17°09' W 061°53'2 3.5
2017-Dec-12 11:00N 17°09' W 061°55'612.1
2017-Dec-12 10:30N 17°13' W 061°60'611.7
2017-Dec-12 10:00N 17°16' W 062°05'713.0
2017-Dec-12 09:30N 17°20' W 062°10'713.5
2017-Dec-12 09:00N 17°24' W 062°16'713.4
2017-Dec-12 08:30N 17°29' W 062°21'713.2
2017-Dec-12 08:00N 17°33' W 062°27'713.2
2017-Dec-12 07:30N 17°37' W 062°32'2913.2
2017-Dec-12 05:19N 17°54' W 062°57'413.2
2017-Dec-12 05:00N 17°57' W 062°60'191867.1
2017-Dec-12 05:00N 17°42' W 062°48'2333.5 080 / 201012.5 5.4 26.016.428.0
2017-Dec-12 04:18N 18°01' W 063°03'0 0.0
2017-Dec-12 03:01N 18°01' W 063°03'0 0.0
2017-Dec-12 00:24N 18°01' W 063°03'0 0.0
2017-Dec-12 00:00N 18°01' W 063°03'0 0.0
2017-Dec-11 23:31N 18°01' W 063°03'0 0.0
2017-Dec-11 23:00N 18°01' W 063°03'0 0.0
2017-Dec-11 21:33N 18°01' W 063°03'0 0.0
2017-Dec-11 21:06N 18°01' W 063°03'0 0.0
2017-Dec-11 20:48N 18°01' W 063°03'0 0.0
2017-Dec-11 19:25N 18°01' W 063°03'0 0.0
2017-Dec-11 18:36N 18°01' W 063°03'0 0.0
2017-Dec-11 18:24N 18°01' W 063°03'0 0.0
2017-Dec-11 17:54N 18°01' W 063°03'0 0.0
2017-Dec-11 17:24N 18°01' W 063°03'0 0.0
2017-Dec-11 14:59N 18°01' W 063°03'3 4.4
2017-Dec-11 14:17N 18°00' W 063°06'412.8
2017-Dec-11 13:59N 18°01' W 063°10'813.3
2017-Dec-11 13:22N 18°02' W 063°18'613.3
2017-Dec-11 12:54N 18°03' W 063°25'512.8
2017-Dec-11 12:30N 18°03' W 063°30'812.7
2017-Dec-11 11:54N 18°06' W 063°38'6312.3
2017-Dec-11 06:49N 18°15' W 064°43'412.6
2017-Dec-11 06:30N 18°16' W 064°47'612.8
2017-Dec-11 06:00N 18°17' W 064°54'4 8.4
2017-Dec-11 05:30N 18°20' W 064°57'0 0.3
2017-Dec-11 05:00N 18°20' W 064°57'0 0.0
2017-Dec-11 04:30N 18°20' W 064°57'0 0.0
2017-Dec-11 03:58N 18°20' W 064°57'0 0.0
2017-Dec-11 03:28N 18°20' W 064°57'0 0.0
2017-Dec-11 02:58N 18°20' W 064°57'0 0.0
2017-Dec-11 02:28N 18°20' W 064°57'0 0.0
2017-Dec-11 01:58N 18°20' W 064°57'0 0.0
2017-Dec-11 01:28N 18°20' W 064°57'0 0.0
2017-Dec-11 00:58N 18°20' W 064°57'0 0.0
2017-Dec-11 00:28N 18°20' W 064°57'0 0.0
2017-Dec-10 23:58N 18°20' W 064°57'0 0.0
2017-Dec-10 23:28N 18°20' W 064°57'0 0.0
2017-Dec-10 22:58N 18°20' W 064°57'1 1.6
2017-Dec-10 22:30N 18°20' W 064°56'2 3.6
2017-Dec-10 22:00N 18°18' W 064°56'0 0.3
2017-Dec-10 21:30N 18°18' W 064°56'1 0.7
2017-Dec-10 20:10N 18°19' W 064°57'0 0.0
2017-Dec-10 20:00N 18°19' W 064°57'0 0.0
2017-Dec-10 19:27N 18°19' W 064°57'0 0.0
2017-Dec-10 18:45N 18°19' W 064°57'0 0.0
2017-Dec-10 18:28N 18°19' W 064°57'0 0.0
2017-Dec-10 17:52N 18°19' W 064°57'0 0.1
2017-Dec-10 17:22N 18°19' W 064°56'0 0.0
2017-Dec-10 16:58N 18°19' W 064°56'0 0.0
2017-Dec-10 16:28N 18°19' W 064°56'1 1.4
2017-Dec-10 16:00N 18°19' W 064°56'1 2.3
2017-Dec-10 15:30N 18°20' W 064°57'0 0.0
2017-Dec-10 14:59N 18°20' W 064°57'0 0.0
2017-Dec-10 14:29N 18°20' W 064°57'0 0.0
2017-Dec-10 13:59N 18°20' W 064°57'0 0.0
2017-Dec-10 13:29N 18°20' W 064°57'0 0.0
2017-Dec-10 12:59N 18°20' W 064°57'0 0.0
2017-Dec-10 12:29N 18°20' W 064°57'0 0.0
2017-Dec-10 12:00N 18°20' W 064°57'2 3.8
2017-Dec-10 11:30N 18°19' W 064°56'3 5.5
2017-Dec-10 11:00N 18°17' W 064°58'4 7.0
2017-Dec-10 10:30N 18°18' W 065°02'4 8.1
2017-Dec-10 10:00N 18°19' W 065°06'5 9.8
2017-Dec-10 09:30N 18°22' W 065°10'611.8
2017-Dec-10 09:00N 18°25' W 065°15'31 7.6
2017-Dec-10 05:00N 18°42' W 065°42'4615.5 170 / 221015.0 2.2 26.018.227.0
2017-Dec-10 02:00N 19°06' W 066°24'29 7.2 090 / 141016.0 26.018.228.0
2017-Dec-09 22:00N 19°24' W 066°48'6713.4 100 / 201016.010.8 28.016.928.0
2017-Dec-09 17:00N 20°00' W 067°48'5016.5 090 / 211015.0 2.2 27.017.627.0
2017-Dec-09 14:00N 20°30' W 068°30'29 7.2 110 / 161017.0 5.4 27.015.727.0
2017-Dec-09 10:00N 20°48' W 068°54'6713.3 090 / 251016.010.8 26.018.228.0
2017-Dec-09 05:00N 21°24' W 069°54'4113.7 100 / 241015.0 5.4 26.016.428.0
2017-Dec-09 02:00N 21°48' W 070°30'3311.0 100 / 181015.5 5.4 26.016.429.0
2017-Dec-08 23:00N 22°06' W 071°00'7011.6 100 / 141017.0 27.015.728.0
2017-Dec-08 17:00N 22°48' W 072°00'5016.8 100 / 181015.0 5.4 26.016.428.0
2017-Dec-08 14:00N 23°12' W 072°48'9411.8 110 / 161016.0 5.4 26.012.228.0
2017-Dec-08 06:00N 24°06' W 074°12'4912.2 120 / 171015.0 2.2 25.017.028.0
2017-Dec-08 02:00N 24°36' W 074°54'3712.4 130 / 141015.0 5.4 26.019.929.0
2017-Dec-07 23:00N 24°54' W 075°30'6513.0 090 / 251015.0 25.013.128.0
2017-Dec-07 18:00N 25°30' W 076°30'5719.0 110 / 91015.0 5.4 25.017.028.0
2017-Dec-07 15:00N 25°48' W 077°30'3511.5 130 / 51017.2 5.4 25.024.329.0
2017-Dec-07 12:00N 26°00' W 078°06'6412.8 110 / 81017.010.8 25.015.128.0
2017-Dec-07 07:00N 26°24' W 079°12'3024.1 120 / 101020.0 5.4 24.017.727.0
2017-Dec-07 05:44N 26°37' W 079°42'311.9
2017-Dec-07 05:30N 26°39' W 079°45'611.8
2017-Dec-07 05:00N 26°42' W 079°51'611.8
2017-Dec-07 04:30N 26°44' W 079°57'510.2
2017-Dec-07 04:00N 26°46' W 080°02'1 2.3
2017-Dec-07 03:30N 26°46' W 080°03'0 0.0
2017-Dec-07 02:58N 26°46' W 080°03'0 0.0
2017-Dec-07 02:28N 26°46' W 080°03'0 0.0
2017-Dec-07 01:58N 26°46' W 080°03'0 0.0
2017-Dec-07 01:28N 26°46' W 080°03'0 0.0
2017-Dec-07 00:58N 26°46' W 080°03'0 0.0
2017-Dec-07 00:31N 26°46' W 080°03'0 0.0
2017-Dec-07 00:00N 26°46' W 080°03'0 0.0
2017-Dec-06 23:30N 26°46' W 080°03'0 0.0
2017-Dec-06 23:00N 26°46' W 080°03'0 0.0
2017-Dec-06 22:30N 26°46' W 080°03'0 0.0
2017-Dec-06 22:00N 26°46' W 080°03'0 0.0
2017-Dec-06 21:30N 26°46' W 080°03'0 0.0
2017-Dec-06 21:00N 26°46' W 080°03'56 5.6
2017-Dec-06 11:00N 26°24' W 079°06'7615.2 160 / 111020.5 25.015.126.0
2017-Dec-06 06:00N 25°54' W 077°48'5719.0 320 / 111020.0 5.4 25.017.029.0
2017-Dec-06 03:00N 25°36' W 076°48'4013.3 120 / 161021.0 5.4 25.017.028.0
2017-Dec-06 00:00N 25°24' W 076°06'7812.9 100 / 231021.510.8
2017-Dec-05 18:00N 24°42' W 074°54'5819.2 090 / 231021.0 26.018.229.0
2017-Dec-05 15:00N 24°12' W 074°00'   090 / 241021.0 5.4 26.523.629.0

Dump ship's entire track history